APL Denmark — A8JX9 — position and weather

sailwx.info

Track history (hours):
 
Tides and Currents Weather Stations Pressure Air Temp Water Temp Dewpoint Dewpoint Depression Visibility Wind Speed Wind Dir Waves Ship Positions

APL Denmark

Last reported at 2015-Jan-28 02:18 UTC. Time now 2015-Feb-01 21:16 UTC.
Position N 35°33' W 025°04'.

Length 277 m; beam 40 m; draft 14 m.

Type: Cargo ship. MMSI: 636091157.

Date/timePositionNaut miles runAvg speedWind from/ knotsBaromVisibWave heightAir tempDewpointWater temp
2015-Jan-28 02:18N 35°33' W 025°04'1619.2
2015-Jan-28 01:29N 35°35' W 024°45'1819.3
2015-Jan-28 00:33N 35°37' W 024°23'4018.9
2015-Jan-27 22:25N 35°42' W 023°34'2018.9
2015-Jan-27 21:20N 35°44' W 023°08'2318.6
2015-Jan-27 20:04N 35°47' W 022°40'39118.7
2015-Jan-26 23:12N 36°08' W 014°38'1218.7
2015-Jan-26 22:33N 36°08' W 014°23'1716.9
2015-Jan-26 21:33N 36°08' W 014°02'1816.6
2015-Jan-26 20:28N 36°08' W 013°39'1616.7
2015-Jan-26 19:30N 36°08' W 013°19'1516.2
2015-Jan-26 18:33N 36°08' W 013°01'2015.8
2015-Jan-26 17:17N 36°09' W 012°36'1115.7
2015-Jan-26 16:33N 36°09' W 012°22'1715.6
2015-Jan-26 15:29N 36°09' W 012°01'1515.6
2015-Jan-26 14:30N 36°09' W 011°42'1515.7
2015-Jan-26 13:33N 36°09' W 011°24'1515.5
2015-Jan-26 12:33N 36°08' W 011°05'1615.4
2015-Jan-26 11:32N 36°07' W 010°45'1615.2
2015-Jan-26 10:29N 36°07' W 010°25'1915.3
2015-Jan-26 09:15N 36°06' W 010°02'1115.4
2015-Jan-26 08:33N 36°05' W 009°49'1615.5
2015-Jan-26 07:31N 36°05' W 009°29'1515.7
2015-Jan-26 06:33N 36°04' W 009°10'1615.8
2015-Jan-26 05:33N 36°03' W 008°51'1615.7
2015-Jan-26 04:33N 36°03' W 008°31'1615.5
2015-Jan-26 03:31N 36°03' W 008°12'12515.1
2015-Jan-25 19:16N 35°58' W 005°37'1113.7
2015-Jan-25 18:30N 36°00' W 005°25'1112.1
2015-Jan-25 17:33N 36°03' W 005°11'20615.3
2015-Jan-25 04:08N 37°10' W 001°09'915.4
2015-Jan-25 03:33N 37°15' W 001°00'1615.7
2015-Jan-25 02:33N 37°26' W 000°46'1615.6
2015-Jan-25 01:33N 37°37' W 000°31'1515.4
2015-Jan-25 00:34N 37°50' W 000°21'1515.2
2015-Jan-24 23:34N 38°02' W 000°10'7712.8
2015-Jan-24 17:33N 39°19' W 000°04'1313.4
2015-Jan-24 16:34N 39°26' W 000°19'1 0.5
2015-Jan-24 15:33N 39°27' W 000°19'0 0.0
2015-Jan-24 14:32N 39°27' W 000°19'0 0.0
2015-Jan-24 13:29N 39°27' W 000°19'0 0.0
2015-Jan-24 12:32N 39°27' W 000°19'0 0.0
2015-Jan-24 11:32N 39°27' W 000°19'0 0.0
2015-Jan-24 10:32N 39°27' W 000°19'0 0.0
2015-Jan-24 09:32N 39°27' W 000°19'0 0.0
2015-Jan-24 08:29N 39°27' W 000°19'0 0.0
2015-Jan-24 07:29N 39°27' W 000°19'0 0.0
2015-Jan-24 06:32N 39°27' W 000°19'0 0.0
2015-Jan-24 05:32N 39°27' W 000°19'0 0.0
2015-Jan-24 04:32N 39°27' W 000°19'0 0.0
2015-Jan-24 03:32N 39°27' W 000°19'0 0.0
2015-Jan-24 02:32N 39°27' W 000°19'0 0.0
2015-Jan-24 01:23N 39°27' W 000°19'0 0.0
2015-Jan-24 00:32N 39°27' W 000°19'0 0.0
2015-Jan-23 23:32N 39°27' W 000°19'0 0.0
2015-Jan-23 22:32N 39°27' W 000°19'0 0.0
2015-Jan-23 21:32N 39°27' W 000°19'0 0.0
2015-Jan-23 20:32N 39°27' W 000°19'0 0.0
2015-Jan-23 19:32N 39°27' W 000°19'1 0.9
2015-Jan-23 18:33N 39°26' W 000°18'5 4.7
2015-Jan-23 17:33N 39°26' W 000°12'6811.4
2015-Jan-23 11:33N 39°58' E 001°06'1212.3
2015-Jan-23 10:33N 40°08' E 001°15'1211.7
2015-Jan-23 09:33N 40°18' E 001°23'1111.2
2015-Jan-23 08:33N 40°27' E 001°31'1211.7
2015-Jan-23 07:33N 40°37' E 001°39'1211.8
2015-Jan-23 06:33N 40°47' E 001°48'1212.1
2015-Jan-23 05:33N 40°57' E 001°56'1212.1
2015-Jan-23 04:33N 41°08' E 002°05'1311.2
2015-Jan-23 03:26N 41°19' E 002°10'2 0.6
2015-Jan-23 00:20N 41°21' E 002°10'8 0.7
2015-Jan-22 12:32N 41°14' E 002°15'1 1.0
2015-Jan-22 11:32N 41°14' E 002°14'10 9.5
2015-Jan-22 10:27N 41°19' E 002°26'1212.2
2015-Jan-22 09:30N 41°23' E 002°41'1211.9
2015-Jan-22 08:29N 41°27' E 002°56'1111.3
2015-Jan-22 07:33N 41°31' E 003°09'1211.6
2015-Jan-22 06:33N 41°37' E 003°22'1212.3
2015-Jan-22 05:33N 41°43' E 003°37'1211.8
2015-Jan-22 04:33N 41°48' E 003°51'1111.2
2015-Jan-22 03:33N 41°53' E 004°04'1212.3
2015-Jan-22 02:33N 41°59' E 004°19'1212.4
2015-Jan-22 01:33N 42°05' E 004°34'1212.2
2015-Jan-22 00:33N 42°11' E 004°48'8311.9
2015-Jan-21 17:34N 42°49' E 006°28'1312.7
2015-Jan-21 16:33N 42°57' E 006°42'1212.3
2015-Jan-21 15:34N 43°04' E 006°56'1211.9
2015-Jan-21 14:33N 43°11' E 007°09'1211.7
2015-Jan-21 13:33N 43°18' E 007°22'1212.2
2015-Jan-21 12:33N 43°25' E 007°36'1812.4
2015-Jan-21 11:06N 43°36' E 007°56'2312.9
2015-Jan-21 09:18N 43°50' E 008°21'1313.2
2015-Jan-21 08:17N 44°02' E 008°29'913.0
2015-Jan-21 07:34N 44°11' E 008°35'1312.7
2015-Jan-21 06:33N 44°22' E 008°42'5 5.1
2015-Jan-21 05:33N 44°25' E 008°48'0 0.0
2015-Jan-21 04:33N 44°25' E 008°48'0 0.0
2015-Jan-21 03:33N 44°25' E 008°48'0 0.0
2015-Jan-21 02:30N 44°25' E 008°48'0 0.0
2015-Jan-21 01:33N 44°25' E 008°48'0 0.0
2015-Jan-21 00:33N 44°25' E 008°48'0 0.0
2015-Jan-20 23:30N 44°25' E 008°48'0 0.0
2015-Jan-20 22:30N 44°25' E 008°48'0 0.0
2015-Jan-20 21:33N 44°25' E 008°48'0 0.0
2015-Jan-20 20:33N 44°25' E 008°48'0 0.0
2015-Jan-20 19:33N 44°25' E 008°48'0 0.0
2015-Jan-20 18:33N 44°25' E 008°48'0 0.0
2015-Jan-20 17:33N 44°25' E 008°48'0 0.0
2015-Jan-20 16:33N 44°25' E 008°48'0 0.0
2015-Jan-20 15:33N 44°25' E 008°48'3 2.5
2015-Jan-20 14:33N 44°24' E 008°45'1211.7
2015-Jan-20 13:33N 44°15' E 008°55'1312.8
2015-Jan-20 12:34N 44°06' E 009°08'1212.5
2015-Jan-20 11:33N 43°58' E 009°21'1312.6
2015-Jan-20 10:33N 43°50' E 009°34'1212.1
2015-Jan-20 09:33N 43°41' E 009°46'1313.1
2015-Jan-20 08:33N 43°33' E 009°60'1110.6
2015-Jan-20 07:33N 43°32' E 010°15'4 3.6
2015-Jan-20 06:34N 43°34' E 010°18'0 0.0
2015-Jan-20 05:33N 43°34' E 010°18'0 0.0
2015-Jan-20 04:31N 43°34' E 010°18'0 0.0
2015-Jan-20 03:31N 43°34' E 010°18'0 0.0
2015-Jan-20 02:32N 43°34' E 010°18'0 0.0
2015-Jan-20 01:31N 43°34' E 010°18'0 0.0
2015-Jan-20 00:25N 43°34' E 010°18'0 0.0
2015-Jan-19 23:31N 43°34' E 010°18'0 0.0
2015-Jan-19 22:31N 43°34' E 010°18'0 0.0
2015-Jan-19 21:31N 43°34' E 010°18'0 0.0
2015-Jan-19 20:31N 43°34' E 010°18'0 0.0
2015-Jan-19 19:31N 43°34' E 010°18'0 0.0
2015-Jan-19 18:31N 43°34' E 010°18'0 0.0
2015-Jan-19 17:31N 43°34' E 010°18'0 0.0
2015-Jan-19 16:31N 43°34' E 010°18'0 0.0
2015-Jan-19 15:31N 43°34' E 010°18'0 0.0
2015-Jan-19 14:31N 43°34' E 010°18'0 0.0
2015-Jan-19 13:31N 43°34' E 010°18'0 0.0
2015-Jan-19 12:31N 43°34' E 010°18'0 0.0
2015-Jan-19 11:31N 43°34' E 010°18'0 0.0
2015-Jan-19 10:31N 43°34' E 010°18'0 0.0
2015-Jan-19 09:31N 43°34' E 010°18'0 0.0
2015-Jan-19 08:31N 43°34' E 010°18'0 0.0
2015-Jan-19 07:31N 43°34' E 010°18'0 0.0
2015-Jan-19 06:31N 43°34' E 010°18'0 0.0
2015-Jan-19 05:31N 43°34' E 010°18'0 0.0
2015-Jan-19 04:31N 43°34' E 010°18'0 0.0
2015-Jan-19 03:31N 43°34' E 010°18'0 0.0
2015-Jan-19 02:31N 43°34' E 010°18'0 0.0
2015-Jan-19 01:31N 43°34' E 010°18'0 0.0
2015-Jan-19 00:31N 43°34' E 010°18'0 0.0
2015-Jan-18 23:31N 43°34' E 010°18'0 0.0
2015-Jan-18 22:31N 43°34' E 010°18'0 0.0
2015-Jan-18 21:31N 43°34' E 010°18'0 0.0
2015-Jan-18 20:31N 43°34' E 010°18'0 0.0
2015-Jan-18 19:31N 43°34' E 010°18'0 0.0
2015-Jan-18 18:31N 43°34' E 010°18'0 0.0
2015-Jan-18 17:31N 43°34' E 010°18'0 0.0
2015-Jan-18 16:31N 43°34' E 010°18'0 0.0
2015-Jan-18 15:31N 43°34' E 010°18'0 0.0
2015-Jan-18 14:31N 43°34' E 010°18'0 0.0
2015-Jan-18 13:31N 43°34' E 010°18'0 0.0
2015-Jan-18 12:31N 43°34' E 010°18'0 0.0
2015-Jan-18 11:31N 43°34' E 010°18'0 0.0
2015-Jan-18 10:31N 43°34' E 010°18'0 0.0
2015-Jan-18 09:31N 43°34' E 010°18'3 3.3
2015-Jan-18 08:33N 43°32' E 010°16'1 0.8
2015-Jan-18 07:34N 43°31' E 010°16'3 3.1
2015-Jan-18 06:34N 43°29' E 010°12'1 1.0
2015-Jan-18 05:34N 43°29' E 010°13'4 3.5
2015-Jan-18 04:34N 43°25' E 010°11'8 8.1
2015-Jan-18 03:33N 43°18' E 010°07'9 9.2
2015-Jan-18 02:33N 43°09' E 010°03'  
Track history (hours):
 
Tides and Currents Weather Stations Pressure Air Temp Water Temp Dewpoint Dewpoint Depression Visibility Wind Speed Wind Dir Waves Ship Positions

APL Denmark

Last reported at 2015-Jan-28 02:18 UTC. Time now 2015-Feb-01 21:16 UTC.
Position N 35°33' W 025°04'.

Length 277 m; beam 40 m; draft 14 m.

Type: Cargo ship. MMSI: 636091157.

Date/timePositionNaut miles runAvg speedWind from/ knotsBaromVisibWave heightAir tempDewpointWater temp
2015-Jan-28 02:18N 35°33' W 025°04'1619.2
2015-Jan-28 01:29N 35°35' W 024°45'1819.3
2015-Jan-28 00:33N 35°37' W 024°23'4018.9
2015-Jan-27 22:25N 35°42' W 023°34'2018.9
2015-Jan-27 21:20N 35°44' W 023°08'2318.6
2015-Jan-27 20:04N 35°47' W 022°40'39118.7
2015-Jan-26 23:12N 36°08' W 014°38'1218.7
2015-Jan-26 22:33N 36°08' W 014°23'1716.9
2015-Jan-26 21:33N 36°08' W 014°02'1816.6
2015-Jan-26 20:28N 36°08' W 013°39'1616.7
2015-Jan-26 19:30N 36°08' W 013°19'1516.2
2015-Jan-26 18:33N 36°08' W 013°01'2015.8
2015-Jan-26 17:17N 36°09' W 012°36'1115.7
2015-Jan-26 16:33N 36°09' W 012°22'1715.6
2015-Jan-26 15:29N 36°09' W 012°01'1515.6
2015-Jan-26 14:30N 36°09' W 011°42'1515.7
2015-Jan-26 13:33N 36°09' W 011°24'1515.5
2015-Jan-26 12:33N 36°08' W 011°05'1615.4
2015-Jan-26 11:32N 36°07' W 010°45'1615.2
2015-Jan-26 10:29N 36°07' W 010°25'1915.3
2015-Jan-26 09:15N 36°06' W 010°02'1115.4
2015-Jan-26 08:33N 36°05' W 009°49'1615.5
2015-Jan-26 07:31N 36°05' W 009°29'1515.7
2015-Jan-26 06:33N 36°04' W 009°10'1615.8
2015-Jan-26 05:33N 36°03' W 008°51'1615.7
2015-Jan-26 04:33N 36°03' W 008°31'1615.5
2015-Jan-26 03:31N 36°03' W 008°12'12515.1
2015-Jan-25 19:16N 35°58' W 005°37'1113.7
2015-Jan-25 18:30N 36°00' W 005°25'1112.1
2015-Jan-25 17:33N 36°03' W 005°11'20615.3
2015-Jan-25 04:08N 37°10' W 001°09'915.4
2015-Jan-25 03:33N 37°15' W 001°00'1615.7
2015-Jan-25 02:33N 37°26' W 000°46'1615.6
2015-Jan-25 01:33N 37°37' W 000°31'1515.4
2015-Jan-25 00:34N 37°50' W 000°21'1515.2
2015-Jan-24 23:34N 38°02' W 000°10'7712.8
2015-Jan-24 17:33N 39°19' W 000°04'1313.4
2015-Jan-24 16:34N 39°26' W 000°19'1 0.5
2015-Jan-24 15:33N 39°27' W 000°19'0 0.0
2015-Jan-24 14:32N 39°27' W 000°19'0 0.0
2015-Jan-24 13:29N 39°27' W 000°19'0 0.0
2015-Jan-24 12:32N 39°27' W 000°19'0 0.0
2015-Jan-24 11:32N 39°27' W 000°19'0 0.0
2015-Jan-24 10:32N 39°27' W 000°19'0 0.0
2015-Jan-24 09:32N 39°27' W 000°19'0 0.0
2015-Jan-24 08:29N 39°27' W 000°19'0 0.0
2015-Jan-24 07:29N 39°27' W 000°19'0 0.0
2015-Jan-24 06:32N 39°27' W 000°19'0 0.0
2015-Jan-24 05:32N 39°27' W 000°19'0 0.0
2015-Jan-24 04:32N 39°27' W 000°19'0 0.0
2015-Jan-24 03:32N 39°27' W 000°19'0 0.0
2015-Jan-24 02:32N 39°27' W 000°19'0 0.0
2015-Jan-24 01:23N 39°27' W 000°19'0 0.0
2015-Jan-24 00:32N 39°27' W 000°19'0 0.0
2015-Jan-23 23:32N 39°27' W 000°19'0 0.0
2015-Jan-23 22:32N 39°27' W 000°19'0 0.0
2015-Jan-23 21:32N 39°27' W 000°19'0 0.0
2015-Jan-23 20:32N 39°27' W 000°19'0 0.0
2015-Jan-23 19:32N 39°27' W 000°19'1 0.9
2015-Jan-23 18:33N 39°26' W 000°18'5 4.7
2015-Jan-23 17:33N 39°26' W 000°12'6811.4
2015-Jan-23 11:33N 39°58' E 001°06'1212.3
2015-Jan-23 10:33N 40°08' E 001°15'1211.7
2015-Jan-23 09:33N 40°18' E 001°23'1111.2
2015-Jan-23 08:33N 40°27' E 001°31'1211.7
2015-Jan-23 07:33N 40°37' E 001°39'1211.8
2015-Jan-23 06:33N 40°47' E 001°48'1212.1
2015-Jan-23 05:33N 40°57' E 001°56'1212.1
2015-Jan-23 04:33N 41°08' E 002°05'1311.2
2015-Jan-23 03:26N 41°19' E 002°10'2 0.6
2015-Jan-23 00:20N 41°21' E 002°10'8 0.7
2015-Jan-22 12:32N 41°14' E 002°15'1 1.0
2015-Jan-22 11:32N 41°14' E 002°14'10 9.5
2015-Jan-22 10:27N 41°19' E 002°26'1212.2
2015-Jan-22 09:30N 41°23' E 002°41'1211.9
2015-Jan-22 08:29N 41°27' E 002°56'1111.3
2015-Jan-22 07:33N 41°31' E 003°09'1211.6
2015-Jan-22 06:33N 41°37' E 003°22'1212.3
2015-Jan-22 05:33N 41°43' E 003°37'1211.8
2015-Jan-22 04:33N 41°48' E 003°51'1111.2
2015-Jan-22 03:33N 41°53' E 004°04'1212.3
2015-Jan-22 02:33N 41°59' E 004°19'1212.4
2015-Jan-22 01:33N 42°05' E 004°34'1212.2
2015-Jan-22 00:33N 42°11' E 004°48'8311.9
2015-Jan-21 17:34N 42°49' E 006°28'1312.7
2015-Jan-21 16:33N 42°57' E 006°42'1212.3
2015-Jan-21 15:34N 43°04' E 006°56'1211.9
2015-Jan-21 14:33N 43°11' E 007°09'1211.7
2015-Jan-21 13:33N 43°18' E 007°22'1212.2
2015-Jan-21 12:33N 43°25' E 007°36'1812.4
2015-Jan-21 11:06N 43°36' E 007°56'2312.9
2015-Jan-21 09:18N 43°50' E 008°21'1313.2
2015-Jan-21 08:17N 44°02' E 008°29'913.0
2015-Jan-21 07:34N 44°11' E 008°35'1312.7
2015-Jan-21 06:33N 44°22' E 008°42'5 5.1
2015-Jan-21 05:33N 44°25' E 008°48'0 0.0
2015-Jan-21 04:33N 44°25' E 008°48'0 0.0
2015-Jan-21 03:33N 44°25' E 008°48'0 0.0
2015-Jan-21 02:30N 44°25' E 008°48'0 0.0
2015-Jan-21 01:33N 44°25' E 008°48'0 0.0
2015-Jan-21 00:33N 44°25' E 008°48'0 0.0
2015-Jan-20 23:30N 44°25' E 008°48'0 0.0
2015-Jan-20 22:30N 44°25' E 008°48'0 0.0
2015-Jan-20 21:33N 44°25' E 008°48'0 0.0
2015-Jan-20 20:33N 44°25' E 008°48'0 0.0
2015-Jan-20 19:33N 44°25' E 008°48'0 0.0
2015-Jan-20 18:33N 44°25' E 008°48'0 0.0
2015-Jan-20 17:33N 44°25' E 008°48'0 0.0
2015-Jan-20 16:33N 44°25' E 008°48'0 0.0
2015-Jan-20 15:33N 44°25' E 008°48'3 2.5
2015-Jan-20 14:33N 44°24' E 008°45'1211.7
2015-Jan-20 13:33N 44°15' E 008°55'1312.8
2015-Jan-20 12:34N 44°06' E 009°08'1212.5
2015-Jan-20 11:33N 43°58' E 009°21'1312.6
2015-Jan-20 10:33N 43°50' E 009°34'1212.1
2015-Jan-20 09:33N 43°41' E 009°46'1313.1
2015-Jan-20 08:33N 43°33' E 009°60'1110.6
2015-Jan-20 07:33N 43°32' E 010°15'4 3.6
2015-Jan-20 06:34N 43°34' E 010°18'0 0.0
2015-Jan-20 05:33N 43°34' E 010°18'0 0.0
2015-Jan-20 04:31N 43°34' E 010°18'0 0.0
2015-Jan-20 03:31N 43°34' E 010°18'0 0.0
2015-Jan-20 02:32N 43°34' E 010°18'0 0.0
2015-Jan-20 01:31N 43°34' E 010°18'0 0.0
2015-Jan-20 00:25N 43°34' E 010°18'0 0.0
2015-Jan-19 23:31N 43°34' E 010°18'0 0.0
2015-Jan-19 22:31N 43°34' E 010°18'0 0.0
2015-Jan-19 21:31N 43°34' E 010°18'0 0.0
2015-Jan-19 20:31N 43°34' E 010°18'0 0.0
2015-Jan-19 19:31N 43°34' E 010°18'0 0.0
2015-Jan-19 18:31N 43°34' E 010°18'0 0.0
2015-Jan-19 17:31N 43°34' E 010°18'0 0.0
2015-Jan-19 16:31N 43°34' E 010°18'0 0.0
2015-Jan-19 15:31N 43°34' E 010°18'0 0.0
2015-Jan-19 14:31N 43°34' E 010°18'0 0.0
2015-Jan-19 13:31N 43°34' E 010°18'0 0.0
2015-Jan-19 12:31N 43°34' E 010°18'0 0.0
2015-Jan-19 11:31N 43°34' E 010°18'0 0.0
2015-Jan-19 10:31N 43°34' E 010°18'0 0.0
2015-Jan-19 09:31N 43°34' E 010°18'0 0.0
2015-Jan-19 08:31N 43°34' E 010°18'0 0.0
2015-Jan-19 07:31N 43°34' E 010°18'0 0.0
2015-Jan-19 06:31N 43°34' E 010°18'0 0.0
2015-Jan-19 05:31N 43°34' E 010°18'0 0.0
2015-Jan-19 04:31N 43°34' E 010°18'0 0.0
2015-Jan-19 03:31N 43°34' E 010°18'0 0.0
2015-Jan-19 02:31N 43°34' E 010°18'0 0.0
2015-Jan-19 01:31N 43°34' E 010°18'0 0.0
2015-Jan-19 00:31N 43°34' E 010°18'0 0.0
2015-Jan-18 23:31N 43°34' E 010°18'0 0.0
2015-Jan-18 22:31N 43°34' E 010°18'0 0.0
2015-Jan-18 21:31N 43°34' E 010°18'0 0.0
2015-Jan-18 20:31N 43°34' E 010°18'0 0.0
2015-Jan-18 19:31N 43°34' E 010°18'0 0.0
2015-Jan-18 18:31N 43°34' E 010°18'0 0.0
2015-Jan-18 17:31N 43°34' E 010°18'0 0.0
2015-Jan-18 16:31N 43°34' E 010°18'0 0.0
2015-Jan-18 15:31N 43°34' E 010°18'0 0.0
2015-Jan-18 14:31N 43°34' E 010°18'0 0.0
2015-Jan-18 13:31N 43°34' E 010°18'0 0.0
2015-Jan-18 12:31N 43°34' E 010°18'0 0.0
2015-Jan-18 11:31N 43°34' E 010°18'0 0.0
2015-Jan-18 10:31N 43°34' E 010°18'0 0.0
2015-Jan-18 09:31N 43°34' E 010°18'3 3.3
2015-Jan-18 08:33N 43°32' E 010°16'1 0.8
2015-Jan-18 07:34N 43°31' E 010°16'3 3.1
2015-Jan-18 06:34N 43°29' E 010°12'1 1.0
2015-Jan-18 05:34N 43°29' E 010°13'4 3.5
2015-Jan-18 04:34N 43°25' E 010°11'8 8.1
2015-Jan-18 03:33N 43°18' E 010°07'9 9.2
2015-Jan-18 02:33N 43°09' E 010°03'  

Dump ship's entire track history